Time;durP1;ratioP1;P1;durP2;ratioP2;P2;SDS_P1;SDS_P2;PMS_P1;PMS_P2;Temp;Humidity;BMP_temperature;BMP_pressure;BME280_temperature;BME280_humidity;BME280_pressure;Samples;Min_cycle;Max_cycle;Signal;HPM_P1;HPM_P2
2021/10/08 00:00:49;;;;;;;41.95;27.17;;;;;;;12.66;90.66;101556.02;2768427;86;20960;-64
2021/10/08 00:04:51;;;;;;;38.35;28.27;;;;;;;12.67;90.77;101547.52;2774277;86;21023;-63
2021/10/08 00:09:00;;;;;;;61.60;30.20;;;;;;;12.69;90.59;101555.80;2775789;86;21030;-63
2021/10/08 00:13:01;;;;;;;40.48;29.27;;;;;;;12.67;90.37;101554.19;2775596;86;21216;-64
2021/10/08 00:17:04;;;;;;;42.88;31.27;;;;;;;12.60;90.45;101560.47;2775801;86;21003;-64
2021/10/08 00:21:44;;;;;;;45.85;30.90;;;;;;;12.55;90.29;101567.92;2775753;86;20983;-64
2021/10/08 00:25:45;;;;;;;47.20;30.60;;;;;;;12.49;90.21;101571.03;2775789;86;21035;-66
2021/10/08 00:29:47;;;;;;;37.17;28.55;;;;;;;12.35;90.50;101568.83;2775613;86;20995;-64
2021/10/08 00:33:49;;;;;;;49.20;31.25;;;;;;;12.26;90.31;101568.98;2775597;86;21007;-64
2021/10/08 00:37:51;;;;;;;42.95;26.75;;;;;;;12.16;90.53;101567.92;2765080;83;21003;-65
2021/10/08 00:41:54;;;;;;;39.48;29.07;;;;;;;12.09;91.02;101562.14;2734005;86;21027;-63
2021/10/08 00:45:56;;;;;;;42.43;28.35;;;;;;;12.08;91.16;101562.23;2734598;87;21059;-65
2021/10/08 00:49:59;;;;;;;42.75;26.97;;;;;;;12.10;90.89;101569.68;2734445;86;21082;-63
2021/10/08 00:54:10;;;;;;;40.38;29.25;;;;;;;12.02;90.78;101567.53;2734265;87;20992;-63
2021/10/08 00:58:15;;;;;;;40.05;29.00;;;;;;;11.97;90.70;101578.47;2734532;86;21019;-63
2021/10/08 01:02:18;;;;;;;46.02;30.12;;;;;;;11.86;90.58;101579.66;2734146;87;21023;-65
2021/10/08 01:06:19;;;;;;;35.20;26.27;;;;;;;11.79;90.65;101582.36;2734695;87;21015;-64
2021/10/08 01:10:46;;;;;;;35.17;26.00;;;;;;;11.75;90.77;101583.53;2734654;86;21147;-64
2021/10/08 01:14:47;;;;;;;36.50;28.10;;;;;;;11.65;90.65;101586.78;2734277;87;20991;-65
2021/10/08 01:18:49;;;;;;;39.50;26.82;;;;;;;11.57;90.58;101583.29;2734278;86;20947;-64
2021/10/08 01:23:01;;;;;;;33.53;25.57;;;;;;;11.52;90.76;101581.91;2734365;87;21079;-64
2021/10/08 01:27:05;;;;;;;34.43;24.85;;;;;;;11.46;90.17;101587.15;2733561;86;21055;-65
2021/10/08 01:31:07;;;;;;;34.67;26.17;;;;;;;11.35;90.37;101597.62;2734440;87;21016;-64
2021/10/08 01:35:42;;;;;;;38.50;27.13;;;;;;;11.34;90.58;101589.27;2734319;87;21023;-64
2021/10/08 01:39:47;;;;;;;33.60;23.80;;;;;;;11.37;90.29;101593.05;2734506;85;21019;-64
2021/10/08 01:43:49;;;;;;;33.30;24.85;;;;;;;11.37;89.46;101593.05;2734462;87;20992;-64
2021/10/08 01:47:54;;;;;;;41.55;26.33;;;;;;;11.37;89.22;101595.72;2734328;86;21039;-64
2021/10/08 01:52:44;;;;;;;36.40;25.68;;;;;;;11.38;88.93;101601.42;2734635;86;21537;-64
2021/10/08 01:56:45;;;;;;;28.45;23.47;;;;;;;11.29;88.91;101613.52;2734389;87;21039;-65
2021/10/08 02:00:47;;;;;;;46.25;28.00;;;;;;;11.20;89.28;101612.80;2734169;86;21023;-65
2021/10/08 02:04:49;;;;;;;36.55;24.85;;;;;;;11.14;89.66;101619.36;2734327;86;21011;-65
2021/10/08 02:08:58;;;;;;;37.70;26.73;;;;;;;11.14;89.78;101619.36;2734110;87;21004;-64
2021/10/08 02:13:00;;;;;;;31.85;23.38;;;;;;;11.11;89.54;101619.55;2734596;86;20977;-64
2021/10/08 02:17:22;;;;;;;29.95;21.15;;;;;;;11.07;89.09;101622.03;2734221;87;20999;-64
2021/10/08 02:21:25;;;;;;;28.77;21.23;;;;;;;10.97;88.92;101620.42;2734327;86;21015;-66
2021/10/08 02:25:26;;;;;;;26.10;19.77;;;;;;;10.88;89.06;101621.85;2734226;87;21000;-65
2021/10/08 02:29:28;;;;;;;28.00;20.65;;;;;;;10.81;88.91;101624.03;2734254;85;20972;-66
2021/10/08 02:33:30;;;;;;;36.30;21.33;;;;;;;10.81;88.87;101629.84;2733469;85;21007;-64
2021/10/08 02:37:32;;;;;;;20.15;15.50;;;;;;;10.77;88.25;101633.16;2736199;85;20988;-66
2021/10/08 02:41:33;;;;;;;19.12;14.65;;;;;;;10.73;87.92;101633.44;2784643;85;21002;-64
2021/10/08 02:45:35;;;;;;;22.25;16.02;;;;;;;10.62;87.69;101637.63;2788052;85;21077;-65
2021/10/08 02:49:49;;;;;;;20.30;16.77;;;;;;;10.51;87.72;101636.91;2788330;85;21050;-64
2021/10/08 02:53:50;;;;;;;22.65;17.55;;;;;;;10.37;87.91;101641.70;2788001;85;20967;-65
2021/10/08 02:57:52;;;;;;;25.15;18.48;;;;;;;10.27;88.06;101644.05;2787893;85;21049;-65
2021/10/08 03:01:53;;;;;;;24.00;17.05;;;;;;;10.22;88.59;101649.25;2788107;85;21007;-64
2021/10/08 03:05:55;;;;;;;22.02;15.80;;;;;;;10.18;88.69;101643.73;2788214;85;20979;-64
2021/10/08 03:10:19;;;;;;;23.52;17.23;;;;;;;10.12;88.81;101647.14;2787932;85;20987;-64
2021/10/08 03:14:21;;;;;;;34.15;13.93;;;;;;;10.05;88.93;101651.11;2787971;85;20978;-64
2021/10/08 03:18:23;;;;;;;21.02;13.30;;;;;;;10.02;87.93;101651.27;2788102;85;20995;-57
2021/10/08 03:22:25;;;;;;;25.15;13.78;;;;;;;9.99;86.50;101658.09;2787955;85;21030;-57
2021/10/08 03:26:28;;;;;;;18.00;12.37;;;;;;;9.91;85.09;101661.67;2787889;84;21026;-57
2021/10/08 03:30:30;;;;;;;15.13;12.53;;;;;;;9.75;84.10;101670.52;2787809;85;21011;-58
2021/10/08 03:34:32;;;;;;;15.83;12.73;;;;;;;9.61;84.11;101674.41;2787851;85;21010;-59
2021/10/08 03:38:43;;;;;;;16.05;12.85;;;;;;;9.40;83.51;101676.84;2785735;85;20968;-58
2021/10/08 03:42:45;;;;;;;18.00;14.55;;;;;;;9.23;83.86;101675.09;2772766;86;21015;-58
2021/10/08 03:46:51;;;;;;;17.60;13.45;;;;;;;9.16;84.36;101674.20;2775923;85;21050;-58
2021/10/08 03:50:52;;;;;;;14.47;12.73;;;;;;;9.10;84.17;101672.73;2775933;85;21003;-57
2021/10/08 03:54:57;;;;;;;17.75;13.03;;;;;;;9.02;84.43;101669.61;2776047;85;21014;-58
2021/10/08 03:58:59;;;;;;;18.12;13.45;;;;;;;8.95;84.33;101666.45;2775786;86;21055;-57
2021/10/08 04:03:02;;;;;;;18.65;12.45;;;;;;;8.90;84.18;101671.98;2775872;86;20955;-58
2021/10/08 04:07:04;;;;;;;15.03;12.20;;;;;;;8.83;84.35;101672.78;2775474;86;21065;-57
2021/10/08 04:11:07;;;;;;;18.20;9.95;;;;;;;8.77;84.35;101673.56;2775937;86;20987;-58
2021/10/08 04:15:09;;;;;;;28.23;12.15;;;;;;;8.77;84.47;101674.44;2775974;86;20984;-59
2021/10/08 04:19:11;;;;;;;53.70;11.68;;;;;;;8.67;83.46;101679.81;2775846;86;21055;-57
2021/10/08 04:23:22;;;;;;;24.37;12.75;;;;;;;8.53;83.85;101679.20;2775636;85;21030;-57
2021/10/08 04:27:23;;;;;;;36.15;12.68;;;;;;;8.51;84.40;101683.24;2775768;86;21054;-61
2021/10/08 04:31:27;;;;;;;22.35;10.58;;;;;;;8.46;84.28;101687.90;2775849;86;21093;-57
2021/10/08 04:35:28;;;;;;;29.12;10.18;;;;;;;8.40;84.28;101693.52;2775550;86;20999;-58
2021/10/08 04:39:30;;;;;;;43.83;12.43;;;;;;;8.36;84.44;101691.48;2775711;85;21047;-58
2021/10/08 04:43:32;;;;;;;19.85;9.53;;;;;;;8.28;84.25;101691.86;2775572;86;20971;-57
2021/10/08 04:47:35;;;;;;;13.75;10.35;;;;;;;8.07;83.94;101692.92;2775851;86;20998;-58
2021/10/08 04:51:37;;;;;;;13.22;10.03;;;;;;;7.98;84.72;101708.35;2775819;86;20987;-57
2021/10/08 04:55:39;;;;;;;20.27;11.53;;;;;;;7.92;84.81;101709.95;2776164;86;20979;-58
2021/10/08 04:59:40;;;;;;;30.23;12.25;;;;;;;7.92;85.36;101719.70;2775793;86;21031;-58
2021/10/08 05:03:42;;;;;;;23.65;12.07;;;;;;;7.83;85.44;101720.52;2775788;86;20987;-58
2021/10/08 05:07:44;;;;;;;18.52;10.82;;;;;;;7.77;85.97;101725.27;2775664;86;20972;-60
2021/10/08 05:11:49;;;;;;;20.02;11.70;;;;;;;7.69;86.13;101726.47;2776012;86;20967;-58
2021/10/08 05:15:51;;;;;;;31.97;11.80;;;;;;;7.60;86.43;101728.69;2775838;86;21058;-59
2021/10/08 05:20:13;;;;;;;35.80;15.08;;;;;;;7.53;87.00;101728.98;2775722;84;21023;-57
2021/10/08 05:24:14;;;;;;;41.88;13.83;;;;;;;7.44;88.01;101726.73;2775611;85;20984;-58
2021/10/08 05:28:26;;;;;;;28.87;14.83;;;;;;;7.43;88.54;101731.64;2775627;86;20995;-57
2021/10/08 05:32:28;;;;;;;37.70;13.05;;;;;;;7.42;88.98;101742.71;2776103;86;20983;-58
2021/10/08 05:36:29;;;;;;;25.25;13.93;;;;;;;7.47;89.40;101745.16;2775643;86;20959;-58
2021/10/08 05:40:33;;;;;;;19.37;14.05;;;;;;;7.48;89.75;101749.52;2776073;86;20987;-58
2021/10/08 05:44:35;;;;;;;31.97;15.28;;;;;;;7.66;91.19;101751.78;2776178;85;21042;-58
2021/10/08 05:48:37;;;;;;;25.40;15.40;;;;;;;7.88;91.25;101752.10;2776137;86;20953;-58
2021/10/08 05:52:40;;;;;;;18.48;12.70;;;;;;;8.08;90.93;101760.89;2776208;86;20964;-58
2021/10/08 05:57:00;;;;;;;23.07;12.35;;;;;;;8.29;90.71;101766.97;2776341;86;20963;-59
2021/10/08 06:01:02;;;;;;;19.37;14.35;;;;;;;8.40;89.71;101768.61;2775984;86;21054;-57
2021/10/08 06:05:04;;;;;;;22.02;14.30;;;;;;;8.51;89.59;101764.62;2776437;86;21057;-59
2021/10/08 06:09:06;;;;;;;29.30;13.85;;;;;;;8.67;89.84;101764.25;2776297;86;21046;-59
2021/10/08 06:13:09;;;;;;;26.17;13.15;;;;;;;8.82;89.13;101763.06;2776591;86;21477;-59
2021/10/08 06:17:11;;;;;;;16.05;14.00;;;;;;;8.88;89.47;101774.70;2776131;86;21023;-58
2021/10/08 06:21:14;;;;;;;27.82;15.83;;;;;;;8.96;89.44;101771.67;2776408;86;21295;-58
2021/10/08 06:25:16;;;;;;;15.93;13.72;;;;;;;9.05;89.24;101770.34;2776573;86;20999;-58
2021/10/08 06:29:17;;;;;;;17.75;15.32;;;;;;;9.17;89.33;101769.67;2776322;86;20995;-58
2021/10/08 06:33:20;;;;;;;18.80;15.95;;;;;;;9.19;89.02;101769.13;2776472;86;21011;-58
2021/10/08 06:37:21;;;;;;;21.95;16.25;;;;;;;9.21;89.58;101770.39;2776390;85;21023;-57
2021/10/08 06:41:24;;;;;;;26.35;19.73;;;;;;;9.26;89.73;101766.56;2776106;86;21031;-56
2021/10/08 06:45:25;;;;;;;23.02;17.95;;;;;;;9.37;90.72;101767.31;2776431;86;20952;-61
2021/10/08 06:49:34;;;;;;;27.27;18.25;;;;;;;9.61;91.83;101773.58;2776284;86;20981;-59
2021/10/08 06:53:36;;;;;;;31.95;21.57;;;;;;;9.91;91.37;101771.98;2776565;86;21018;-58
2021/10/08 06:58:01;;;;;;;32.45;18.67;;;;;;;10.19;90.47;101791.69;2776221;86;21035;-58
2021/10/08 07:02:03;;;;;;;22.58;17.45;;;;;;;10.33;88.32;101795.77;2776396;86;20995;-58
2021/10/08 07:06:29;;;;;;;26.68;19.57;;;;;;;10.51;88.24;101803.68;2776349;86;21237;-60
2021/10/08 07:10:31;;;;;;;23.12;17.02;;;;;;;10.71;86.69;101800.72;2776396;86;21014;-58
2021/10/08 07:14:39;;;;;;;21.87;16.65;;;;;;;10.82;85.13;101801.42;2776374;86;20991;-58
2021/10/08 07:18:49;;;;;;;29.57;18.02;;;;;;;10.87;84.77;101809.14;2776027;86;20967;-58
2021/10/08 07:22:46;;;;;;;30.40;17.85;;;;;;;10.98;84.55;101808.51;2781320;85;21006;-58
2021/10/08 07:26:48;;;;;;;23.32;16.80;;;;;;;11.03;84.10;101817.07;2788063;85;21023;-57
2021/10/08 07:30:51;;;;;;;40.95;17.70;;;;;;;11.12;84.53;101821.86;2846650;83;20995;-59
2021/10/08 07:34:53;;;;;;;31.55;20.43;;;;;;;11.27;83.09;101823.20;2846751;83;20971;-57
2021/10/08 07:38:55;;;;;;;30.20;18.15;;;;;;;11.37;82.42;101823.50;2765717;85;20978;-58
2021/10/08 07:42:57;;;;;;;33.40;17.82;;;;;;;11.47;81.42;101819.80;2788072;85;21058;-58
2021/10/08 07:47:00;;;;;;;25.08;16.52;;;;;;;11.51;81.36;101827.52;2787874;85;21082;-57
2021/10/08 07:51:03;;;;;;;25.45;16.80;;;;;;;11.68;81.19;101825.63;2787909;85;21051;-57
2021/10/08 07:55:07;;;;;;;23.15;18.35;;;;;;;11.80;79.46;101828.00;2787905;85;21046;-58
2021/10/08 07:59:08;;;;;;;30.57;17.85;;;;;;;11.80;79.50;101830.20;2787920;85;20975;-59
2021/10/08 08:03:24;;;;;;;30.72;18.25;;;;;;;11.95;78.55;101832.84;2787865;85;20998;-58
2021/10/08 08:07:26;;;;;;;32.05;15.65;;;;;;;11.97;77.31;101834.93;2788253;85;21046;-57
2021/10/08 08:11:27;;;;;;;28.45;17.90;;;;;;;12.03;76.52;101830.59;2788151;85;20995;-58
2021/10/08 08:15:29;;;;;;;50.83;27.13;;;;;;;12.10;76.11;101833.24;2787938;85;21015;-57
2021/10/08 08:19:31;;;;;;;32.33;21.87;;;;;;;12.16;74.67;101837.80;2787808;85;21002;-59
2021/10/08 08:23:32;;;;;;;23.80;16.90;;;;;;;12.16;74.90;101837.33;2787977;85;21002;-58
2021/10/08 08:27:34;;;;;;;20.80;14.45;;;;;;;12.24;73.46;101836.84;2788084;84;20974;-58
2021/10/08 08:31:36;;;;;;;25.30;17.40;;;;;;;12.26;72.89;101834.93;2787574;85;21015;-59
2021/10/08 08:35:45;;;;;;;27.60;16.12;;;;;;;12.25;73.84;101835.39;2788069;83;21012;-57
2021/10/08 08:39:53;;;;;;;25.82;16.50;;;;;;;12.35;73.24;101831.66;2786329;85;20999;-62
2021/10/08 08:43:55;;;;;;;23.52;15.40;;;;;;;12.50;73.33;101833.83;2775866;86;21025;-58
2021/10/08 08:48:13;;;;;;;25.43;15.98;;;;;;;12.67;72.14;101830.03;2775678;86;20967;-58
2021/10/08 08:52:16;;;;;;;31.75;15.98;;;;;;;12.72;71.31;101823.06;2809828;84;21326;-59
2021/10/08 08:56:19;;;;;;;21.95;14.40;;;;;;;12.79;71.47;101824.35;2764886;86;21034;-58
2021/10/08 09:00:22;;;;;;;30.08;17.05;;;;;;;12.91;71.27;101825.84;2775504;85;21011;-58
2021/10/08 09:04:28;;;;;;;33.85;19.42;;;;;;;13.03;71.20;101826.32;2772422;85;21067;-60
2021/10/08 09:08:34;;;;;;;30.32;15.30;;;;;;;13.20;70.80;101826.52;2770143;85;21025;-58
2021/10/08 09:12:43;;;;;;;26.68;16.17;;;;;;;13.25;69.53;101827.06;2770082;86;21692;-58
2021/10/08 09:17:14;;;;;;;23.87;14.85;;;;;;;13.27;68.11;101818.95;2770059;86;21084;-59
2021/10/08 09:21:16;;;;;;;27.58;15.15;;;;;;;13.26;68.09;101819.87;2769969;85;21001;-58
2021/10/08 09:25:53;;;;;;;32.60;16.85;;;;;;;13.31;68.89;101815.09;2769976;86;21043;-59
2021/10/08 09:29:56;;;;;;;23.15;15.40;;;;;;;13.37;68.00;101808.48;2770056;86;21028;-61
2021/10/08 09:34:26;;;;;;;24.95;15.05;;;;;;;13.47;67.44;101805.55;2770078;86;20973;-58
2021/10/08 09:38:33;;;;;;;27.93;15.85;;;;;;;13.45;65.65;101803.47;2742159;87;21009;-60
2021/10/08 09:42:36;;;;;;;24.32;14.80;;;;;;;13.50;67.44;101801.32;2742700;86;21079;-58
2021/10/08 09:46:39;;;;;;;23.90;14.07;;;;;;;13.58;66.93;101805.30;2744059;87;21032;-59
2021/10/08 09:51:02;;;;;;;24.18;13.68;;;;;;;13.65;66.86;101803.88;2739724;87;21064;-57
2021/10/08 09:55:15;;;;;;;28.38;14.25;;;;;;;13.75;65.35;101806.76;2739946;87;21039;-62
2021/10/08 09:59:18;;;;;;;24.50;14.73;;;;;;;13.81;64.67;101815.67;2739596;87;21028;-59
2021/10/08 10:03:19;;;;;;;26.45;14.23;;;;;;;13.84;64.75;101806.95;2739756;87;21063;-58
2021/10/08 10:07:26;;;;;;;24.30;13.25;;;;;;;13.87;63.60;101801.88;2739916;87;21020;-60
2021/10/08 10:11:28;;;;;;;32.40;14.78;;;;;;;13.91;64.16;101814.06;2739822;86;21027;-59
2021/10/08 10:15:30;;;;;;;32.98;13.88;;;;;;;13.96;62.99;101811.06;2739561;82;21844;-59
2021/10/08 10:19:45;;;;;;;33.50;14.33;;;;;;;13.94;62.53;101810.29;2739822;87;21919;-58
2021/10/08 10:24:14;;;;;;;51.48;15.53;;;;;;;13.93;62.57;101803.23;2739755;87;21083;-58
2021/10/08 10:28:17;;;;;;;21.40;14.87;;;;;;;13.97;63.15;101802.91;2739910;87;21917;-60
2021/10/08 10:32:19;;;;;;;39.18;15.38;;;;;;;14.04;63.08;101801.11;2739882;87;21004;-60
2021/10/08 10:36:26;;;;;;;18.42;12.25;;;;;;;13.93;61.37;101801.42;2739686;87;21036;-58
2021/10/08 10:40:28;;;;;;;33.35;16.90;;;;;;;13.98;62.65;101803.78;2740280;86;21067;-59
2021/10/08 10:44:41;;;;;;;23.77;14.95;;;;;;;14.00;61.54;101806.70;2744435;86;20977;-59
2021/10/08 10:48:45;;;;;;;23.80;13.93;;;;;;;14.00;61.50;101805.36;2740916;87;21052;-57
2021/10/08 10:53:05;;;;;;;20.32;13.20;;;;;;;14.08;62.73;101803.97;2742517;87;21046;-58
2021/10/08 10:57:14;;;;;;;26.68;14.90;;;;;;;14.18;62.16;101802.81;2770771;86;20981;-57
2021/10/08 11:01:20;;;;;;;30.20;16.93;;;;;;;14.14;61.18;101812.87;2697974;84;21047;-58
2021/10/08 11:05:20;;;;;;;31.10;14.95;;;;;;;14.04;62.07;101809.14;2770696;84;20961;-60
2021/10/08 11:09:22;;;;;;;24.67;14.03;;;;;;;14.01;62.13;101808.91;2844038;84;21023;-57
2021/10/08 11:13:28;;;;;;;26.37;15.10;;;;;;;14.07;62.46;101813.80;2844011;83;21036;-61
2021/10/08 11:18:08;;;;;;;28.23;16.30;;;;;;;14.08;61.41;101809.31;2843963;84;21000;-59
2021/10/08 11:22:11;;;;;;;23.75;16.00;;;;;;;14.20;62.39;101803.55;2843605;82;21031;-59
2021/10/08 11:26:18;;;;;;;25.52;16.93;;;;;;;14.18;62.01;101801.47;2843608;82;20929;-59
2021/10/08 11:30:22;;;;;;;24.72;15.03;;;;;;;14.17;63.00;101804.62;2844494;82;21074;-58
2021/10/08 11:34:24;;;;;;;26.07;15.83;;;;;;;14.24;61.90;101797.84;2843994;82;21027;-62
2021/10/08 11:38:26;;;;;;;29.52;16.50;;;;;;;14.28;62.03;101795.33;2844267;83;21098;-60
2021/10/08 11:42:40;;;;;;;28.47;16.05;;;;;;;14.30;61.66;101799.21;2843395;83;20997;-61
2021/10/08 11:46:55;;;;;;;23.10;17.40;;;;;;;14.34;61.39;101790.48;2844239;83;21032;-58
2021/10/08 11:51:11;;;;;;;26.82;16.65;;;;;;;14.37;61.54;101795.14;2843876;84;21039;-58
2021/10/08 11:55:22;;;;;;;25.02;16.37;;;;;;;14.36;61.74;101794.77;2843461;82;21059;-58
2021/10/08 11:59:24;;;;;;;24.55;15.13;;;;;;;14.41;61.60;101785.90;2844227;83;20980;-58
2021/10/08 12:03:27;;;;;;;19.73;16.17;;;;;;;14.44;61.21;101791.49;2844339;83;20964;-61
2021/10/08 12:07:37;;;;;;;16.55;14.83;;;;;;;14.49;61.87;101783.13;2844222;84;20952;-59
2021/10/08 12:11:35;;;;;;;25.75;15.00;;;;;;;14.50;61.39;101779.01;2842768;82;21004;-58
2021/10/08 12:15:37;;;;;;;33.25;17.45;;;;;;;14.49;61.85;101778.64;2843873;82;21071;-57
2021/10/08 12:19:52;;;;;;;31.12;17.87;;;;;;;14.53;61.45;101783.25;2843930;83;21005;-58
2021/10/08 12:24:01;;;;;;;29.23;16.65;;;;;;;14.52;62.10;101778.87;2844381;84;20991;-59
2021/10/08 12:28:04;;;;;;;33.30;16.85;;;;;;;14.56;61.49;101785.73;2844120;84;20999;-57
2021/10/08 12:32:44;;;;;;;26.17;16.05;;;;;;;14.67;61.63;101790.28;2844337;83;21343;-61
2021/10/08 12:36:51;;;;;;;22.52;14.13;;;;;;;14.75;61.43;101797.77;2843772;84;21031;-58
2021/10/08 12:40:53;;;;;;;25.82;15.08;;;;;;;14.72;61.11;101794.83;2840115;83;21020;-58
2021/10/08 12:45:00;;;;;;;22.98;16.02;;;;;;;14.71;61.28;101787.77;2814787;83;20985;-57
2021/10/08 12:49:04;;;;;;;34.73;17.42;;;;;;;14.72;61.35;101785.45;2814886;83;21040;-58
2021/10/08 12:53:23;;;;;;;28.07;16.80;;;;;;;14.75;61.61;101787.05;2814821;84;21027;-59
2021/10/08 12:57:24;;;;;;;29.40;15.80;;;;;;;14.80;61.71;101785.70;2814958;84;21008;-60
2021/10/08 13:01:26;;;;;;;28.92;15.15;;;;;;;14.84;61.04;101780.98;2820590;83;20972;-62
2021/10/08 13:05:48;;;;;;;23.07;14.60;;;;;;;14.85;61.08;101780.88;2832327;84;20972;-63
2021/10/08 13:10:35;;;;;;;25.17;15.72;;;;;;;14.90;61.28;101785.02;2832733;84;21015;-62
2021/10/08 13:14:37;;;;;;;22.02;14.05;;;;;;;14.82;61.36;101782.42;2828965;84;21051;-65
2021/10/08 13:18:48;;;;;;;21.80;15.05;;;;;;;14.85;61.19;101780.88;2821610;83;21037;-63
2021/10/08 13:22:50;;;;;;;24.25;15.88;;;;;;;14.81;62.02;101778.55;2826621;84;20989;-62
2021/10/08 13:26:52;;;;;;;29.18;14.98;;;;;;;14.84;62.39;101770.27;2814677;84;21032;-63
2021/10/08 13:30:57;;;;;;;25.08;14.15;;;;;;;14.94;62.86;101776.64;2822602;83;30746;-66
2021/10/08 13:34:59;;;;;;;25.48;15.68;;;;;;;15.06;62.51;101767.27;2781106;83;21056;-62
2021/10/08 13:39:01;;;;;;;25.68;15.30;;;;;;;15.07;62.19;101767.63;2761181;86;21012;-63
2021/10/08 13:43:03;;;;;;;30.17;13.98;;;;;;;15.11;62.55;101769.09;2779165;85;21521;-62
2021/10/08 13:47:05;;;;;;;24.77;13.65;;;;;;;15.12;62.60;101768.98;2789982;84;21020;-63
2021/10/08 13:52:06;;;;;;;31.42;15.70;;;;;;;15.16;62.14;101768.75;2785671;85;21019;-63
2021/10/08 13:56:06;;;;;;;19.98;13.83;;;;;;;15.14;62.03;101759.50;2785467;85;20992;-63
2021/10/08 14:00:22;;;;;;;23.40;13.08;;;;;;;15.09;62.37;101765.22;2785496;85;21040;-62
2021/10/08 14:04:35;;;;;;;21.30;14.40;;;;;;;15.09;62.63;101761.20;2826469;82;21030;-62
2021/10/08 14:12:55;;;;;;;24.30;13.45;;;;;;;15.13;63.27;101763.13;2773366;83;21106;-58
2021/10/08 14:16:57;;;;;;;23.62;13.00;;;;;;;15.16;62.93;101756.69;2839559;84;20985;-57
2021/10/08 14:20:58;;;;;;;30.23;15.32;;;;;;;15.15;63.96;101751.83;2831674;83;21035;-57
2021/10/08 14:25:02;;;;;;;28.30;18.85;;;;;;;15.22;63.93;101758.41;2830238;84;20994;-57
2021/10/08 14:29:04;;;;;;;27.42;16.05;;;;;;;15.26;64.09;101757.18;2830461;84;21045;-61
2021/10/08 14:33:05;;;;;;;21.60;12.40;;;;;;;15.16;63.31;101753.53;2830565;83;20966;-58
2021/10/08 14:37:14;;;;;;;22.82;15.08;;;;;;;15.14;64.17;101750.96;2830171;84;21033;-57
2021/10/08 14:41:15;;;;;;;34.80;22.62;;;;;;;15.12;64.11;101758.73;2830404;84;21068;-57
2021/10/08 14:45:19;;;;;;;31.87;18.70;;;;;;;15.06;64.03;101757.89;2829668;84;20997;-58
2021/10/08 14:49:23;;;;;;;28.32;18.02;;;;;;;15.01;64.43;101754.72;2830302;84;20966;-57
2021/10/08 14:53:25;;;;;;;24.60;16.62;;;;;;;14.92;64.42;101757.12;2830363;84;21073;-59
2021/10/08 15:01:49;;;;;;;22.52;14.50;;;;;;;14.82;64.89;101744.92;2830532;84;21076;-58
2021/10/08 15:05:51;;;;;;;47.55;15.63;;;;;;;14.79;64.53;101746.50;2830057;84;21037;-57
2021/10/08 15:09:54;;;;;;;27.55;18.67;;;;;;;14.75;65.14;101747.72;2830429;84;20994;-58
2021/10/08 15:14:04;;;;;;;29.80;17.75;;;;;;;14.73;65.98;101748.79;2827678;80;21033;-58
2021/10/08 15:18:06;;;;;;;19.77;15.05;;;;;;;14.70;66.65;101753.38;2820874;84;21057;-57
2021/10/08 15:22:08;;;;;;;23.10;14.15;;;;;;;14.65;67.05;101745.36;2821242;84;21055;-58
2021/10/08 15:26:10;;;;;;;26.00;14.43;;;;;;;14.58;67.34;101755.67;2820795;84;20966;-58
2021/10/08 15:30:18;;;;;;;25.12;13.38;;;;;;;14.51;66.85;101750.39;2820826;84;20982;-58
2021/10/08 15:34:21;;;;;;;26.55;14.35;;;;;;;14.43;66.93;101751.83;2820863;83;21017;-58
2021/10/08 15:38:24;;;;;;;17.35;9.60;;;;;;;14.37;67.05;101764.82;2820976;84;21037;-57
2021/10/08 15:42:27;;;;;;;20.70;12.05;;;;;;;14.26;67.00;101765.63;2821111;84;21265;-59
2021/10/08 15:46:28;;;;;;;19.60;12.98;;;;;;;14.14;66.81;101761.53;2821031;84;21029;-58
2021/10/08 15:50:31;;;;;;;19.67;12.70;;;;;;;14.04;67.25;101769.02;2821290;84;21002;-58
2021/10/08 15:54:33;;;;;;;23.25;11.83;;;;;;;13.93;67.63;101769.80;2821094;84;20998;-58
2021/10/08 15:58:34;;;;;;;21.07;11.97;;;;;;;13.81;68.36;101776.42;2820851;84;20966;-57
2021/10/08 16:02:38;;;;;;;21.80;11.57;;;;;;;13.71;68.45;101782.05;2821056;84;21029;-59
2021/10/08 16:06:40;;;;;;;16.55;11.22;;;;;;;13.63;68.49;101786.59;2821116;84;20989;-57
2021/10/08 16:10:43;;;;;;;25.62;11.10;;;;;;;13.53;68.42;101785.06;2820815;84;21014;-60
2021/10/08 16:15:07;;;;;;;18.62;11.00;;;;;;;13.45;67.92;101786.09;2818000;84;20962;-60
2021/10/08 16:19:16;;;;;;;23.15;13.00;;;;;;;13.36;67.77;101794.70;2860050;82;21242;-57
2021/10/08 16:23:21;;;;;;;17.90;12.78;;;;;;;13.27;67.33;101801.58;2844211;83;21051;-57
2021/10/08 16:27:23;;;;;;;20.25;12.40;;;;;;;13.19;67.10;101799.90;2844592;81;21086;-58
2021/10/08 16:31:25;;;;;;;27.00;18.95;;;;;;;13.08;67.13;101807.31;2844592;83;20976;-59
2021/10/08 16:35:36;;;;;;;52.15;32.48;;;;;;;12.96;66.99;101813.86;2882381;82;21097;-57
2021/10/08 16:39:39;;;;;;;51.53;34.55;;;;;;;12.89;67.15;101809.90;2906128;82;21014;-58
2021/10/08 16:43:41;;;;;;;61.90;33.65;;;;;;;12.81;67.07;101814.91;2906390;82;20975;-58
2021/10/08 16:47:50;;;;;;;64.45;33.42;;;;;;;12.74;67.01;101817.60;2906334;81;21011;-58
2021/10/08 16:51:52;;;;;;;41.88;22.10;;;;;;;12.66;66.84;101822.98;2906110;80;20994;-58
2021/10/08 16:55:55;;;;;;;53.10;31.23;;;;;;;12.62;66.91;101825.95;2906208;82;20975;-57
2021/10/08 16:59:56;;;;;;;60.88;41.18;;;;;;;12.53;67.24;101830.08;2896118;82;20997;-60
2021/10/08 17:03:58;;;;;;;50.65;33.35;;;;;;;12.49;67.64;101831.24;2828737;83;21029;-61
2021/10/08 17:07:59;;;;;;;67.95;43.58;;;;;;;12.48;67.97;101841.55;2789731;85;20974;-61
2021/10/08 17:12:02;;;;;;;40.20;26.33;;;;;;;12.46;68.00;101840.30;2789595;85;21029;-61
2021/10/08 17:16:05;;;;;;;48.75;29.98;;;;;;;12.42;68.04;101840.13;2801873;84;21049;-60
2021/10/08 17:20:08;;;;;;;38.02;24.00;;;;;;;12.35;68.18;101846.33;2809472;85;21252;-61
2021/10/08 17:24:12;;;;;;;37.40;19.77;;;;;;;12.23;68.49;101840.47;2809329;84;20978;-60
2021/10/08 17:36:57;;;;;;;24.98;16.12;;;;;;;11.93;69.67;101844.08;2809350;85;21020;-61
2021/10/08 17:40:58;;;;;;;24.27;13.70;;;;;;;11.78;70.08;101837.41;2809267;85;21010;-61
2021/10/08 17:45:00;;;;;;;25.80;13.55;;;;;;;11.67;70.48;101842.58;2809459;84;21026;-61
2021/10/08 17:49:03;;;;;;;23.70;13.08;;;;;;;11.56;70.89;101837.91;2809382;85;21089;-60
2021/10/08 17:53:29;;;;;;;23.98;13.05;;;;;;;11.50;71.20;101843.63;2809444;85;21018;-60
2021/10/08 17:57:31;;;;;;;23.70;15.43;;;;;;;11.43;71.34;101839.14;2809802;84;21014;-61
2021/10/08 18:02:13;;;;;;;21.77;11.88;;;;;;;11.33;71.57;101838.84;2809586;85;21034;-60
2021/10/08 18:06:15;;;;;;;18.77;10.75;;;;;;;11.29;71.78;101839.48;2809532;84;21100;-60
2021/10/08 18:10:16;;;;;;;27.37;13.75;;;;;;;11.23;71.94;101846.98;2864618;81;21031;-60
2021/10/08 18:14:24;;;;;;;18.65;11.35;;;;;;;11.19;72.07;101842.30;2875775;83;21003;-60
2021/10/08 18:18:27;;;;;;;26.27;13.22;;;;;;;11.16;72.03;101849.64;2875595;82;21114;-61
2021/10/08 18:22:29;;;;;;;26.52;13.40;;;;;;;11.09;72.01;101857.98;2875873;83;20948;-61
2021/10/08 18:26:34;;;;;;;17.17;11.50;;;;;;;11.03;72.17;101864.16;2876067;81;20987;-60
2021/10/08 18:30:41;;;;;;;23.60;13.83;;;;;;;10.93;72.35;101864.69;2816225;83;21038;-60
2021/10/08 18:34:48;;;;;;;25.70;14.47;;;;;;;10.86;72.36;101863.34;2816746;83;21037;-60
2021/10/08 18:38:50;;;;;;;27.02;16.25;;;;;;;10.81;72.27;101865.41;2817160;84;21025;-59
2021/10/08 18:42:53;;;;;;;29.52;17.05;;;;;;;10.72;72.49;101865.47;2816840;84;20994;-59
2021/10/08 18:46:54;;;;;;;22.75;15.28;;;;;;;10.63;72.70;101865.98;2765752;85;21041;-61
2021/10/08 18:50:57;;;;;;;32.40;17.82;;;;;;;10.54;72.80;101868.69;2796832;84;20978;-60
2021/10/08 18:54:59;;;;;;;25.82;15.28;;;;;;;10.45;72.92;101870.55;2782347;85;21049;-60
2021/10/08 18:59:03;;;;;;;24.02;14.25;;;;;;;10.36;73.09;101872.73;2878304;81;20983;-60